Time;durP1;ratioP1;P1;durP2;ratioP2;P2;SDS_P1;SDS_P2;PMS_P1;PMS_P2;Temp;Humidity;BMP_temperature;BMP_pressure;BME280_temperature;BME280_humidity;BME280_pressure;Samples;Min_cycle;Max_cycle;Signal;HPM_P1;HPM_P2
2023/09/28 00:00:35;;;;;;;10.27;9.40;;;;;;;14.69;82.93;98043.34;4989683;28;21017;-73
2023/09/28 00:02:45;;;;;;;9.27;8.57;;;;;;;14.74;82.75;98043.50;4988724;28;20456;-73
2023/09/28 00:05:14;;;;;;;10.20;9.20;;;;;;;14.72;82.82;98052.97;4989416;28;20580;-74
2023/09/28 00:07:40;;;;;;;9.60;8.80;;;;;;;14.57;83.43;98053.38;4988318;28;20507;-73
2023/09/28 00:10:10;;;;;;;10.30;9.40;;;;;;;14.60;83.88;98054.81;4988850;28;20648;-73
2023/09/28 00:12:39;;;;;;;9.10;8.27;;;;;;;14.66;83.28;98049.25;4990016;28;21165;-74
2023/09/28 00:15:06;;;;;;;9.50;8.57;;;;;;;14.61;83.34;98062.75;4988949;28;20801;-74
2023/09/28 00:17:32;;;;;;;10.20;9.30;;;;;;;14.71;83.07;98054.84;4988380;28;21049;-74
2023/09/28 00:20:00;;;;;;;10.07;9.17;;;;;;;14.59;83.59;98064.88;4984298;28;21112;-73
2023/09/28 00:22:27;;;;;;;9.20;8.50;;;;;;;14.66;83.21;98059.31;4988693;28;21015;-74
2023/09/28 00:24:53;;;;;;;8.90;8.20;;;;;;;14.77;82.55;98059.41;4988363;28;20465;-74
2023/09/28 00:27:19;;;;;;;8.33;7.70;;;;;;;14.83;82.07;98068.56;4988812;28;20448;-74
2023/09/28 00:29:46;;;;;;;8.67;8.00;;;;;;;14.82;82.08;98063.34;4987611;28;20490;-74
2023/09/28 00:32:12;;;;;;;10.00;9.20;;;;;;;14.66;82.88;98068.31;4988779;28;20226;-73
2023/09/28 00:34:39;;;;;;;9.30;8.50;;;;;;;14.85;81.64;98068.31;4988984;28;21505;-74
2023/09/28 00:37:05;;;;;;;9.03;8.30;;;;;;;14.70;82.46;98063.25;4988321;28;20969;-74
2023/09/28 00:39:33;;;;;;;9.03;8.27;;;;;;;14.68;82.57;98071.66;4987849;28;20552;-73
2023/09/28 00:41:59;;;;;;;9.57;8.87;;;;;;;14.65;82.47;98074.81;4988504;28;20296;-73
2023/09/28 00:44:26;;;;;;;9.90;9.10;;;;;;;14.50;83.31;98076.28;4988676;28;20555;-73
2023/09/28 00:46:51;;;;;;;10.07;9.27;;;;;;;14.58;82.60;98071.38;4988072;28;20210;-73
2023/09/28 00:49:18;;;;;;;9.40;8.50;;;;;;;14.64;82.51;98075.06;4987296;28;21057;-73
2023/09/28 00:51:45;;;;;;;11.03;10.13;;;;;;;14.64;82.46;98073.16;4989263;28;20613;-74
2023/09/28 00:54:13;;;;;;;9.53;8.73;;;;;;;14.63;82.29;98079.66;4989451;28;20464;-73
2023/09/28 00:56:41;;;;;;;9.67;8.70;;;;;;;14.69;82.13;98081.50;4989509;28;20572;-73
2023/09/28 00:59:08;;;;;;;9.03;8.23;;;;;;;14.79;81.34;98073.63;4988089;28;20571;-73
2023/09/28 01:01:34;;;;;;;8.80;8.00;;;;;;;14.91;81.23;98072.88;4987883;28;20498;-73
2023/09/28 01:04:05;;;;;;;10.13;8.60;;;;;;;14.75;80.95;98072.41;4989130;28;20791;-73
2023/09/28 01:06:32;;;;;;;8.47;7.77;;;;;;;14.91;80.74;98068.25;4986424;28;21246;-73
2023/09/28 01:08:58;;;;;;;10.20;8.13;;;;;;;14.83;80.84;98074.00;4987576;28;20551;-74
2023/09/28 01:11:24;;;;;;;9.23;8.50;;;;;;;14.77;80.74;98064.84;4988806;28;20464;-73
2023/09/28 01:13:52;;;;;;;9.10;8.33;;;;;;;14.69;81.31;98070.59;4988561;28;20536;-73
2023/09/28 01:16:19;;;;;;;10.10;9.20;;;;;;;14.59;81.60;98070.31;4992054;28;20202;-74
2023/09/28 01:18:46;;;;;;;9.60;8.80;;;;;;;14.54;82.10;98067.44;4991628;28;20628;-73
2023/09/28 01:21:12;;;;;;;9.10;8.40;;;;;;;14.56;82.18;98073.50;4992345;28;20496;-73
2023/09/28 01:23:40;;;;;;;8.57;7.87;;;;;;;14.69;81.11;98070.59;4992461;28;20473;-74
2023/09/28 01:26:06;;;;;;;9.13;8.33;;;;;;;14.58;81.65;98068.66;4993235;28;20820;-73
2023/09/28 01:28:33;;;;;;;9.30;8.50;;;;;;;14.54;81.84;98072.88;4991297;28;20480;-73
2023/09/28 01:30:59;;;;;;;9.13;8.23;;;;;;;14.44;82.28;98072.56;4991936;28;20662;-73
2023/09/28 01:33:27;;;;;;;9.50;8.70;;;;;;;14.44;81.98;98067.94;4992473;28;20447;-73
2023/09/28 01:35:53;;;;;;;9.33;8.53;;;;;;;14.37;82.40;98066.31;4992375;28;20508;-73
2023/09/28 01:38:22;;;;;;;9.30;8.50;;;;;;;14.40;82.39;98074.88;4991613;28;20500;-73
2023/09/28 01:40:50;;;;;;;9.37;8.47;;;;;;;14.50;81.82;98068.94;4989416;28;20500;-73
2023/09/28 01:43:17;;;;;;;9.63;8.70;;;;;;;14.54;81.69;98070.16;4991900;28;20458;-74
2023/09/28 01:45:43;;;;;;;9.33;8.53;;;;;;;14.44;82.19;98072.56;4992512;28;20450;-73
2023/09/28 01:48:10;;;;;;;9.10;8.37;;;;;;;14.45;81.91;98074.22;4991607;28;20550;-73
2023/09/28 01:50:35;;;;;;;10.03;9.13;;;;;;;14.34;82.37;98072.22;4990492;28;20479;-73
2023/09/28 01:53:02;;;;;;;9.40;8.50;;;;;;;14.35;82.36;98069.25;4992779;28;20457;-73
2023/09/28 01:55:28;;;;;;;9.40;8.60;;;;;;;14.30;82.54;98066.38;4990687;28;20197;-73
2023/09/28 01:57:56;;;;;;;10.10;9.20;;;;;;;14.42;82.10;98070.06;4991151;28;20801;-73
2023/09/28 02:00:24;;;;;;;9.77;8.87;;;;;;;14.40;82.01;98060.41;4991106;28;20233;-73
2023/09/28 02:02:53;;;;;;;9.80;8.80;;;;;;;14.41;81.64;98067.56;4991495;28;20460;-73
2023/09/28 02:05:20;;;;;;;9.50;8.73;;;;;;;14.34;81.58;98070.31;4991057;28;20482;-73
2023/09/28 02:07:47;;;;;;;9.27;8.40;;;;;;;14.36;81.64;98072.81;4991140;28;20468;-73
2023/09/28 02:10:14;;;;;;;9.00;8.10;;;;;;;14.43;81.46;98077.19;4991188;28;20468;-74
2023/09/28 02:12:43;;;;;;;9.20;8.50;;;;;;;14.25;81.69;98070.88;4991472;28;20964;-73
2023/09/28 02:15:14;;;;;;;9.10;8.30;;;;;;;14.18;81.70;98072.81;4992491;28;20446;-73
2023/09/28 02:17:42;;;;;;;9.40;8.70;;;;;;;14.30;81.04;98076.44;4992141;28;20462;-73
2023/09/28 02:20:09;;;;;;;8.73;8.00;;;;;;;14.12;81.22;98069.91;4988312;28;20874;-73
2023/09/28 02:22:41;;;;;;;8.30;7.60;;;;;;;14.18;80.98;98075.53;4991033;28;21038;-73
2023/09/28 02:25:07;;;;;;;8.70;8.00;;;;;;;14.28;80.54;98070.41;4991355;28;20494;-73
2023/09/28 02:27:34;;;;;;;8.40;7.73;;;;;;;14.27;80.16;98076.91;4990422;28;20464;-73
2023/09/28 02:30:00;;;;;;;8.33;7.63;;;;;;;14.36;79.47;98075.53;4991231;28;20509;-73
2023/09/28 02:32:28;;;;;;;8.93;8.03;;;;;;;14.38;79.08;98095.22;4990277;28;20682;-73
2023/09/28 02:34:54;;;;;;;7.70;7.00;;;;;;;14.40;79.10;98085.75;4991208;28;20533;-73
2023/09/28 02:37:20;;;;;;;7.80;7.20;;;;;;;14.29;79.48;98089.25;4990875;28;20543;-73
2023/09/28 02:39:48;;;;;;;8.17;7.47;;;;;;;14.25;79.45;98084.47;4990426;28;20545;-74
2023/09/28 02:42:14;;;;;;;8.80;8.00;;;;;;;14.20;79.70;98087.03;4989361;28;20516;-73
2023/09/28 02:44:41;;;;;;;8.70;7.87;;;;;;;14.13;79.99;98077.03;4991207;28;20881;-73
2023/09/28 02:47:09;;;;;;;8.97;8.07;;;;;;;14.18;79.93;98079.09;4990064;28;20491;-73
2023/09/28 02:49:37;;;;;;;9.60;7.53;;;;;;;14.25;79.44;98089.91;4990550;28;20621;-73
2023/09/28 02:52:03;;;;;;;8.13;7.50;;;;;;;14.21;79.53;98094.13;4991520;28;20464;-74
2023/09/28 02:54:30;;;;;;;8.30;7.60;;;;;;;14.17;79.83;98101.09;4990811;28;20483;-74
2023/09/28 02:56:56;;;;;;;9.07;8.10;;;;;;;14.10;80.18;98096.53;4991107;28;20441;-74
2023/09/28 02:59:23;;;;;;;9.30;7.40;;;;;;;14.06;80.59;98092.59;4989944;28;20808;-74
2023/09/28 03:01:49;;;;;;;7.97;7.27;;;;;;;14.00;80.81;98098.91;4990506;28;20235;-74
2023/09/28 03:04:16;;;;;;;8.50;7.80;;;;;;;14.11;80.09;98106.34;4991406;28;21070;-74
2023/09/28 03:06:45;;;;;;;8.53;7.73;;;;;;;14.08;80.29;98112.25;4991120;28;20636;-74
2023/09/28 03:09:12;;;;;;;9.27;8.37;;;;;;;14.15;80.13;98122.25;4991056;28;20589;-74
2023/09/28 03:11:39;;;;;;;9.00;8.20;;;;;;;14.09;80.55;98121.25;4988917;28;20520;-74
2023/09/28 03:14:06;;;;;;;8.23;7.53;;;;;;;14.11;80.50;98116.41;4989738;28;20470;-74
2023/09/28 03:16:32;;;;;;;7.97;7.23;;;;;;;14.09;80.49;98107.63;4990619;28;20936;-74
2023/09/28 03:19:00;;;;;;;7.90;7.20;;;;;;;14.10;80.29;98107.41;4989921;28;20564;-74
2023/09/28 03:21:28;;;;;;;8.00;7.40;;;;;;;14.09;80.34;98107.63;4990806;28;20542;-74
2023/09/28 03:23:58;;;;;;;8.27;7.47;;;;;;;14.04;80.67;98100.13;4991486;28;20445;-74
2023/09/28 03:26:24;;;;;;;7.43;6.73;;;;;;;14.05;80.72;98106.41;4990746;28;20461;-74
2023/09/28 03:28:51;;;;;;;8.80;7.90;;;;;;;14.12;80.38;98112.63;4989147;28;20481;-74
2023/09/28 03:31:17;;;;;;;8.43;7.63;;;;;;;14.22;80.23;98110.25;4990317;28;20337;-74
2023/09/28 03:33:43;;;;;;;8.43;7.60;;;;;;;14.30;79.98;98111.84;4990826;28;20475;-74
2023/09/28 03:36:10;;;;;;;8.27;7.50;;;;;;;14.32;79.75;98112.44;4991102;28;20902;-73
2023/09/28 03:38:37;;;;;;;7.97;7.17;;;;;;;14.30;79.59;98118.09;4989703;28;21044;-73
2023/09/28 03:41:06;;;;;;;8.40;7.70;;;;;;;14.19;80.02;98116.13;4987430;28;20591;-73
2023/09/28 03:43:33;;;;;;;7.97;7.33;;;;;;;13.97;81.03;98129.28;4990062;28;20518;-73
2023/09/28 03:46:00;;;;;;;8.13;7.33;;;;;;;13.90;81.31;98109.47;4989835;28;20448;-73
2023/09/28 03:48:27;;;;;;;6.83;6.23;;;;;;;13.92;81.37;98107.38;4989921;28;20987;-73
2023/09/28 03:50:53;;;;;;;8.30;7.50;;;;;;;14.01;80.78;98111.47;4988696;28;20720;-73
2023/09/28 03:53:20;;;;;;;7.90;7.10;;;;;;;13.99;80.83;98119.00;4990438;28;20532;-73
2023/09/28 03:55:49;;;;;;;8.70;8.00;;;;;;;14.08;80.65;98123.13;4989166;28;20488;-74
2023/09/28 03:58:17;;;;;;;7.90;7.30;;;;;;;14.01;80.52;98116.06;4990080;28;21041;-73
2023/09/28 04:00:44;;;;;;;9.10;8.20;;;;;;;13.88;81.12;98116.19;4988646;28;20535;-73
2023/09/28 04:03:12;;;;;;;8.43;7.60;;;;;;;14.00;80.70;98128.84;4989336;28;20526;-73
2023/09/28 04:05:39;;;;;;;7.40;6.70;;;;;;;13.74;81.14;98116.28;4990060;28;20463;-73
2023/09/28 04:08:07;;;;;;;8.67;7.77;;;;;;;13.80;81.29;98122.75;4988952;28;20492;-74
2023/09/28 04:10:34;;;;;;;8.73;7.37;;;;;;;13.97;80.29;98129.28;4987337;28;20522;-73
2023/09/28 04:13:01;;;;;;;8.00;7.30;;;;;;;14.15;79.37;98133.13;4989380;28;20829;-74
2023/09/28 04:15:30;;;;;;;8.10;7.40;;;;;;;14.11;79.31;98130.84;4989435;28;20546;-73
2023/09/28 04:17:56;;;;;;;8.30;7.50;;;;;;;14.26;78.69;98132.41;4986601;28;20536;-73
2023/09/28 04:20:23;;;;;;;7.37;6.73;;;;;;;14.10;78.76;98131.91;4986800;28;20486;-70
2023/09/28 04:22:50;;;;;;;7.70;7.00;;;;;;;14.12;78.67;98131.69;4987403;28;20636;-74
2023/09/28 04:25:18;;;;;;;8.80;7.90;;;;;;;14.04;79.54;98138.25;4988348;28;20454;-74
2023/09/28 04:27:45;;;;;;;8.37;7.57;;;;;;;14.03;79.62;98135.72;4987434;28;20458;-74
2023/09/28 04:30:12;;;;;;;8.53;7.73;;;;;;;14.03;79.14;98141.19;4984991;28;20567;-74
2023/09/28 04:32:40;;;;;;;8.43;7.17;;;;;;;14.05;79.66;98139.91;4986666;28;20468;-73
2023/09/28 04:35:10;;;;;;;11.37;7.43;;;;;;;13.91;79.91;98138.34;4988118;28;20464;-74
2023/09/28 04:37:37;;;;;;;8.63;7.53;;;;;;;13.83;80.51;98135.06;4989253;28;20436;-74
2023/09/28 04:40:05;;;;;;;8.30;7.57;;;;;;;13.84;80.21;98129.41;4989234;28;20523;-74
2023/09/28 04:42:32;;;;;;;9.20;8.23;;;;;;;13.94;79.98;98137.91;4988711;28;21068;-74
2023/09/28 04:44:59;;;;;;;7.80;7.10;;;;;;;13.95;80.05;98138.75;4988550;28;20955;-74
2023/09/28 04:47:26;;;;;;;8.77;8.07;;;;;;;13.94;80.31;98142.53;4989675;28;20469;-74
2023/09/28 04:49:55;;;;;;;8.60;7.60;;;;;;;13.94;80.05;98137.91;4986480;28;20542;-73
2023/09/28 04:52:22;;;;;;;8.20;7.40;;;;;;;13.76;81.15;98138.66;4988953;28;20544;-78
2023/09/28 04:54:49;;;;;;;9.27;8.37;;;;;;;13.91;80.90;98149.25;4986258;28;20461;-69
2023/09/28 04:57:16;;;;;;;9.80;8.73;;;;;;;13.76;81.05;98151.44;4986598;28;20453;-72
2023/09/28 04:59:43;;;;;;;8.23;7.53;;;;;;;13.78;81.64;98139.28;4987666;28;20570;-71
2023/09/28 05:02:10;;;;;;;9.10;8.20;;;;;;;13.90;80.74;98158.47;4984643;28;20519;-70
2023/09/28 05:04:37;;;;;;;9.20;8.40;;;;;;;13.86;80.16;98135.47;4987837;28;20465;-71
2023/09/28 05:07:05;;;;;;;9.00;8.13;;;;;;;13.87;79.98;98142.56;4989336;28;20477;-71
2023/09/28 05:09:32;;;;;;;9.00;8.20;;;;;;;13.99;79.81;98143.50;4988272;28;20880;-71
2023/09/28 05:12:00;;;;;;;9.03;8.13;;;;;;;13.99;79.32;98140.78;4988632;28;20537;-71
2023/09/28 05:14:27;;;;;;;8.10;7.40;;;;;;;14.03;79.37;98142.00;4987963;28;20457;-71
2023/09/28 05:16:54;;;;;;;9.23;8.40;;;;;;;14.03;79.14;98141.19;4987134;28;20452;-71
2023/09/28 05:19:21;;;;;;;8.50;7.67;;;;;;;14.09;78.97;98145.75;4987355;28;20594;-69
2023/09/28 05:21:48;;;;;;;8.30;7.60;;;;;;;14.06;78.80;98141.56;4986962;28;20991;-70
2023/09/28 05:24:17;;;;;;;8.07;7.23;;;;;;;14.21;78.15;98148.59;4986843;28;20865;-69
2023/09/28 05:26:43;;;;;;;8.10;7.40;;;;;;;14.21;78.14;98159.47;4987095;28;20948;-73
2023/09/28 05:29:11;;;;;;;9.00;8.20;;;;;;;14.13;78.62;98163.31;4988230;28;21022;-73
2023/09/28 05:31:37;;;;;;;9.03;8.17;;;;;;;13.98;79.39;98160.88;4986660;28;20455;-74
2023/09/28 05:34:04;;;;;;;8.10;7.50;;;;;;;13.97;79.43;98163.84;4988607;28;20894;-74
2023/09/28 05:36:31;;;;;;;8.90;8.00;;;;;;;14.00;79.36;98164.22;4988920;28;20464;-74
2023/09/28 05:38:58;;;;;;;8.80;7.67;;;;;;;13.98;79.42;98160.06;4988652;28;20467;-74
2023/09/28 05:41:26;;;;;;;8.87;8.07;;;;;;;13.95;79.60;98183.13;4989164;28;20491;-74
2023/09/28 05:43:53;;;;;;;8.53;7.80;;;;;;;14.06;79.12;98181.56;4987999;28;20495;-73
2023/09/28 05:46:19;;;;;;;9.20;8.40;;;;;;;13.91;79.82;98184.63;4988554;28;20503;-73
2023/09/28 05:48:47;;;;;;;8.53;7.77;;;;;;;14.02;79.78;98191.22;4988233;28;20631;-73
2023/09/28 05:51:15;;;;;;;9.10;7.77;;;;;;;14.14;78.98;98186.75;4988702;28;20543;-73
2023/09/28 05:53:42;;;;;;;8.97;8.10;;;;;;;14.00;79.27;98194.16;4988797;28;20791;-73
2023/09/28 05:56:09;;;;;;;9.33;7.70;;;;;;;14.06;78.98;98198.72;4989097;28;20441;-73
2023/09/28 05:58:37;;;;;;;8.60;7.73;;;;;;;14.05;78.89;98196.22;4987876;28;20567;-73
2023/09/28 06:01:07;;;;;;;8.70;7.90;;;;;;;14.19;78.31;98199.69;4989102;28;20488;-73
2023/09/28 06:03:35;;;;;;;8.63;7.53;;;;;;;14.27;77.79;98215.75;4992425;28;20460;-73
2023/09/28 06:06:13;;;;;;;8.63;7.83;;;;;;;14.15;78.22;98212.06;4991994;28;20727;-73
2023/09/28 06:08:40;;;;;;;8.83;7.93;;;;;;;14.25;78.20;98209.69;4992184;28;20547;-74
2023/09/28 06:11:11;;;;;;;8.27;7.47;;;;;;;14.18;77.95;98214.34;4992353;28;20942;-73
2023/09/28 06:13:39;;;;;;;8.27;7.47;;;;;;;14.22;77.98;98204.69;4992415;28;20520;-73
2023/09/28 06:16:06;;;;;;;8.23;7.43;;;;;;;14.20;77.80;98204.09;4991240;28;20811;-73
2023/09/28 06:18:33;;;;;;;8.50;7.70;;;;;;;14.28;77.75;98198.38;4989728;28;20498;-73
2023/09/28 06:21:00;;;;;;;11.23;7.30;;;;;;;14.23;77.99;98200.91;4991834;28;20515;-73
2023/09/28 06:23:26;;;;;;;8.17;7.47;;;;;;;14.27;77.92;98202.16;4992235;28;20456;-73
2023/09/28 06:25:53;;;;;;;8.17;7.40;;;;;;;14.39;77.40;98201.19;4992698;28;20537;-73
2023/09/28 06:28:21;;;;;;;8.53;7.70;;;;;;;14.19;78.02;98195.09;4991477;28;20992;-73
2023/09/28 06:30:49;;;;;;;9.87;8.87;;;;;;;14.29;77.99;98195.44;4991265;28;20516;-73
2023/09/28 06:33:16;;;;;;;9.10;7.93;;;;;;;14.49;77.67;98197.16;4989571;28;21196;-73
2023/09/28 06:35:42;;;;;;;9.27;8.37;;;;;;;14.59;76.56;98182.00;4991878;28;20453;-73
2023/09/28 06:38:10;;;;;;;7.83;7.17;;;;;;;14.87;75.77;98197.00;4991356;28;20836;-73
2023/09/28 06:40:39;;;;;;;8.20;7.50;;;;;;;15.13;74.42;98207.63;4991284;28;20953;-73
2023/09/28 06:43:05;;;;;;;7.93;7.23;;;;;;;15.14;74.30;98209.28;4991318;28;20648;-73
2023/09/28 06:45:32;;;;;;;8.23;7.43;;;;;;;15.39;73.34;98215.47;4990697;28;20525;-73
2023/09/28 06:48:01;;;;;;;7.83;7.00;;;;;;;15.60;72.52;98210.63;4990768;28;20477;-73
2023/09/28 06:50:29;;;;;;;7.40;6.80;;;;;;;15.51;72.70;98225.63;4991721;28;20462;-73
2023/09/28 06:52:56;;;;;;;7.90;7.20;;;;;;;15.41;72.57;98228.88;4990708;28;20467;-74
2023/09/28 06:55:24;;;;;;;7.00;6.43;;;;;;;15.31;73.11;98226.69;4991453;28;20545;-73
2023/09/28 06:57:51;;;;;;;8.17;7.33;;;;;;;15.16;73.41;98234.44;4990648;28;20488;-73
2023/09/28 07:00:18;;;;;;;9.20;7.57;;;;;;;15.21;73.67;98226.41;4990328;28;21002;-74
2023/09/28 07:02:47;;;;;;;8.33;7.63;;;;;;;15.48;73.56;98232.38;4991033;28;21073;-73
2023/09/28 07:05:16;;;;;;;7.20;6.60;;;;;;;16.28;69.94;98229.38;4991592;28;20457;-73
2023/09/28 07:07:43;;;;;;;8.70;6.20;;;;;;;17.45;65.62;98225.63;4990935;28;20489;-73
2023/09/28 07:10:11;;;;;;;6.60;6.00;;;;;;;18.19;61.89;98219.44;4991224;28;20450;-73
2023/09/28 07:12:38;;;;;;;7.60;5.57;;;;;;;18.74;59.63;98225.03;4990260;28;20838;-74
2023/09/28 07:15:06;;;;;;;7.10;5.70;;;;;;;18.52;60.03;98218.63;4990859;28;20457;-73
2023/09/28 07:17:34;;;;;;;6.37;5.87;;;;;;;18.80;59.27;98224.06;4991225;28;20497;-74
2023/09/28 07:20:01;;;;;;;7.17;6.57;;;;;;;18.96;58.68;98219.63;4990266;28;20458;-74
2023/09/28 07:22:29;;;;;;;8.13;7.33;;;;;;;18.56;60.06;98223.34;4991057;28;20493;-73
2023/09/28 07:24:56;;;;;;;6.20;5.60;;;;;;;18.48;61.04;98223.78;4991119;28;20790;-74
2023/09/28 07:27:22;;;;;;;6.67;6.07;;;;;;;18.08;61.99;98216.50;4990391;28;20446;-73
2023/09/28 07:29:50;;;;;;;8.30;6.87;;;;;;;17.89;62.53;98233.34;4990271;28;20497;-74
2023/09/28 07:32:17;;;;;;;6.80;6.13;;;;;;;17.64;63.99;98233.66;4989748;28;20830;-74
2023/09/28 07:34:44;;;;;;;7.00;6.40;;;;;;;17.95;63.56;98233.22;4991117;28;20957;-74
2023/09/28 07:37:10;;;;;;;7.17;6.43;;;;;;;18.91;59.79;98238.72;4990776;28;20533;-74
2023/09/28 07:39:38;;;;;;;7.47;6.30;;;;;;;19.62;57.22;98234.28;4990664;28;20444;-74
2023/09/28 07:42:07;;;;;;;6.10;5.60;;;;;;;20.26;55.48;98240.78;4990195;28;20498;-74
2023/09/28 07:44:34;;;;;;;6.43;5.90;;;;;;;20.93;53.01;98245.78;4989671;28;20464;-74
2023/09/28 07:47:01;;;;;;;5.50;5.00;;;;;;;21.42;52.00;98238.19;4987553;28;20476;-74
2023/09/28 07:49:28;;;;;;;7.13;6.17;;;;;;;22.33;49.79;98245.97;4990817;28;20483;-74
2023/09/28 07:51:55;;;;;;;5.80;5.20;;;;;;;22.92;48.19;98252.94;4990223;28;20458;-74
2023/09/28 07:54:22;;;;;;;6.20;5.60;;;;;;;22.96;47.86;98254.03;4990035;28;20442;-74
2023/09/28 07:56:50;;;;;;;5.90;5.40;;;;;;;23.19;46.61;98249.84;4990525;28;20533;-74
2023/09/28 07:59:17;;;;;;;6.37;5.77;;;;;;;23.00;46.70;98250.44;4989095;28;20473;-74
2023/09/28 08:01:44;;;;;;;6.23;5.63;;;;;;;23.00;46.89;98250.44;4989942;28;21088;-74
2023/09/28 08:04:11;;;;;;;6.00;5.40;;;;;;;22.56;47.46;98243.78;4989703;28;20866;-74
2023/09/28 08:06:39;;;;;;;5.50;5.00;;;;;;;22.98;46.92;98247.13;4989430;28;20545;-74
2023/09/28 08:09:10;;;;;;;5.43;4.93;;;;;;;23.17;44.78;98250.13;4988297;28;21011;-74
2023/09/28 08:11:40;;;;;;;6.30;5.50;;;;;;;23.02;45.91;98242.72;4990106;28;21142;-75
2023/09/28 08:14:09;;;;;;;5.43;4.97;;;;;;;22.75;46.38;98228.31;4990722;28;20533;-74
2023/09/28 08:16:36;;;;;;;5.17;4.40;;;;;;;22.80;45.59;98242.16;4989611;28;20459;-74
2023/09/28 08:19:04;;;;;;;5.27;4.77;;;;;;;22.94;45.32;98240.50;4989354;28;20481;-73
2023/09/28 08:21:31;;;;;;;6.37;5.70;;;;;;;23.58;44.29;98233.50;4988443;28;21353;-73
2023/09/28 08:23:59;;;;;;;4.70;4.20;;;;;;;24.05;42.89;98225.53;4989613;28;20538;-74
2023/09/28 08:26:25;;;;;;;4.73;4.20;;;;;;;23.86;42.11;98243.88;4989483;28;20500;-74
2023/09/28 08:28:52;;;;;;;6.10;4.53;;;;;;;24.12;42.10;98244.59;4990007;28;20469;-74
2023/09/28 08:31:21;;;;;;;5.17;4.67;;;;;;;24.65;40.35;98253.97;4989349;28;20476;-74
2023/09/28 08:33:49;;;;;;;4.73;4.30;;;;;;;24.98;39.98;98248.75;4989826;28;20453;-74
2023/09/28 08:36:17;;;;;;;5.20;4.40;;;;;;;24.89;38.77;98253.22;4988433;28;22031;-74
2023/09/28 08:38:44;;;;;;;4.57;4.23;;;;;;;24.86;39.30;98254.63;4988748;28;20481;-74
2023/09/28 08:41:11;;;;;;;5.37;4.97;;;;;;;24.89;39.45;98254.06;4988890;28;20461;-74
2023/09/28 08:43:42;;;;;;;5.03;4.20;;;;;;;24.63;40.00;98264.50;4989336;28;20486;-74
2023/09/28 08:46:11;;;;;;;5.60;4.50;;;;;;;25.29;39.48;98255.66;4989287;28;20528;-74
2023/09/28 08:48:44;;;;;;;6.83;4.33;;;;;;;25.06;39.01;98250.88;4988846;28;20481;-74
2023/09/28 08:51:11;;;;;;;5.50;5.00;;;;;;;25.88;38.18;98260.03;4990125;28;20476;-74
2023/09/28 08:53:39;;;;;;;4.73;4.43;;;;;;;26.84;36.55;98255.06;4989370;28;20462;-74
2023/09/28 08:56:06;;;;;;;4.73;4.10;;;;;;;26.96;35.51;98268.53;4988738;28;20470;-74
2023/09/28 08:58:34;;;;;;;4.70;4.23;;;;;;;26.94;35.21;98254.09;4989125;28;20476;-74
2023/09/28 09:01:01;;;;;;;5.60;5.10;;;;;;;27.56;34.59;98254.66;4989667;28;20548;-74
2023/09/28 09:03:28;;;;;;;6.27;4.30;;;;;;;27.37;34.54;98251.94;4988773;28;20496;-74
2023/09/28 09:05:57;;;;;;;4.70;4.20;;;;;;;28.05;33.51;98252.00;4989358;28;20450;-74
2023/09/28 09:08:27;;;;;;;4.40;4.00;;;;;;;27.51;34.94;98252.81;4988990;28;20493;-74
2023/09/28 09:10:54;;;;;;;6.77;4.73;;;;;;;27.09;35.31;98253.84;4989265;28;20454;-74
2023/09/28 09:13:22;;;;;;;4.00;3.70;;;;;;;27.21;33.88;98248.63;4988883;28;20814;-74
2023/09/28 09:15:50;;;;;;;5.30;4.23;;;;;;;27.06;34.92;98252.50;4988163;28;20516;-75
2023/09/28 09:18:18;;;;;;;4.67;4.37;;;;;;;28.04;33.50;98250.34;4988083;28;20591;-74
2023/09/28 09:20:46;;;;;;;4.80;4.40;;;;;;;28.36;32.44;98251.38;4989422;28;20950;-74
2023/09/28 09:23:15;;;;;;;4.83;3.97;;;;;;;28.47;32.87;98255.56;4988962;28;20490;-74
2023/09/28 09:25:42;;;;;;;4.60;3.97;;;;;;;28.95;32.24;98255.00;4988384;28;20898;-75
2023/09/28 09:28:09;;;;;;;4.27;3.97;;;;;;;29.33;30.80;98261.00;4988237;28;20838;-75
2023/09/28 09:30:36;;;;;;;4.10;3.70;;;;;;;29.89;29.43;98267.88;4988766;28;20472;-75
2023/09/28 09:33:04;;;;;;;4.33;4.00;;;;;;;30.24;29.49;98260.44;4988941;28;20529;-75
2023/09/28 09:35:31;;;;;;;3.80;3.50;;;;;;;30.68;27.80;98254.63;4989366;28;20450;-75
2023/09/28 09:37:58;;;;;;;4.77;4.17;;;;;;;30.95;27.99;98261.00;4992272;28;20601;-75
2023/09/28 09:40:26;;;;;;;4.70;4.30;;;;;;;31.07;28.11;98250.00;4991468;28;20584;-75
2023/09/28 09:42:53;;;;;;;4.13;3.80;;;;;;;31.61;26.96;98247.56;4992757;28;20489;-75
2023/09/28 09:45:20;;;;;;;4.27;3.80;;;;;;;31.89;26.53;98247.97;4991177;28;20505;-75
2023/09/28 09:47:48;;;;;;;4.87;4.47;;;;;;;31.84;26.56;98245.38;4991826;28;20532;-75
2023/09/28 09:50:16;;;;;;;4.40;4.00;;;;;;;31.35;27.06;98253.25;4992119;28;20465;-75
2023/09/28 09:52:44;;;;;;;3.70;3.40;;;;;;;31.63;26.91;98245.25;4992274;28;21157;-75
2023/09/28 09:55:12;;;;;;;3.33;3.00;;;;;;;32.60;25.35;98251.69;4992012;28;20529;-75
2023/09/28 09:57:43;;;;;;;4.33;3.93;;;;;;;32.98;25.09;98250.75;4992715;28;20474;-75
2023/09/28 10:00:15;;;;;;;4.70;4.20;;;;;;;33.10;24.74;98253.59;4991476;28;20472;-75
2023/09/28 10:02:43;;;;;;;4.73;4.17;;;;;;;33.40;24.62;98256.31;4992141;28;20520;-75
2023/09/28 10:05:13;;;;;;;4.67;4.27;;;;;;;33.15;24.06;98250.56;4992581;28;20479;-76
2023/09/28 10:07:40;;;;;;;4.27;3.87;;;;;;;32.83;24.29;98249.38;4992002;28;20528;-74
2023/09/28 10:10:07;;;;;;;4.53;4.13;;;;;;;32.61;25.26;98250.53;4991316;28;20449;-75
2023/09/28 10:12:34;;;;;;;4.00;3.70;;;;;;;32.41;25.44;98250.53;4992355;28;20466;-75
2023/09/28 10:15:02;;;;;;;4.00;3.70;;;;;;;33.28;24.14;98259.88;4992014;28;20454;-76
2023/09/28 10:17:31;;;;;;;4.33;4.03;;;;;;;33.76;23.31;98242.34;4990910;28;20862;-76
2023/09/28 10:19:59;;;;;;;4.10;3.80;;;;;;;33.63;23.26;98249.09;4991610;28;21574;-76
2023/09/28 10:22:25;;;;;;;4.17;3.87;;;;;;;33.08;24.34;98247.53;4991903;28;20536;-76
2023/09/28 10:24:53;;;;;;;4.30;3.37;;;;;;;33.97;23.58;98253.50;4991501;28;20877;-76
2023/09/28 10:27:20;;;;;;;4.07;3.67;;;;;;;34.67;22.89;98240.09;4992036;28;20528;-76
2023/09/28 10:29:46;;;;;;;3.90;3.50;;;;;;;34.46;22.45;98257.09;4991194;28;20486;-76
2023/09/28 10:32:28;;;;;;;4.13;3.70;;;;;;;33.53;23.42;98243.91;4990413;28;20515;-74
2023/09/28 10:35:14;;;;;;;6.50;3.80;;;;;;;32.84;23.99;98242.59;4991031;28;20594;-74
2023/09/28 10:37:40;;;;;;;4.57;3.70;;;;;;;33.19;23.96;98231.88;4980605;28;20473;-74
2023/09/28 10:40:08;;;;;;;4.53;4.13;;;;;;;33.79;23.44;98235.22;4991271;28;20493;-75
2023/09/28 10:42:35;;;;;;;4.67;4.20;;;;;;;33.67;23.92;98238.81;4990525;28;20608;-75
2023/09/28 10:45:06;;;;;;;4.70;4.30;;;;;;;34.00;23.90;98233.94;4990084;28;20557;-75
2023/09/28 10:47:36;;;;;;;5.40;4.40;;;;;;;34.11;24.26;98233.47;4989545;28;20481;-75
2023/09/28 10:50:04;;;;;;;4.90;4.50;;;;;;;33.07;25.61;98231.84;4991241;28;20503;-75
2023/09/28 10:52:31;;;;;;;4.50;3.90;;;;;;;33.37;24.29;98230.56;4991052;28;20488;-75
2023/09/28 10:54:58;;;;;;;4.27;3.87;;;;;;;33.95;23.13;98225.75;4991346;28;20458;-75
2023/09/28 10:57:29;;;;;;;4.43;4.13;;;;;;;33.84;22.86;98220.94;4990828;28;20982;-75
2023/09/28 10:59:59;;;;;;;4.70;4.30;;;;;;;33.74;23.67;98222.19;4990896;28;20461;-77
2023/09/28 11:02:26;;;;;;;6.03;4.10;;;;;;;34.02;23.68;98220.38;4989818;28;20886;-75
2023/09/28 11:04:54;;;;;;;4.40;4.00;;;;;;;33.20;25.14;98216.66;4991284;28;20434;-75
2023/09/28 11:07:22;;;;;;;4.50;3.53;;;;;;;33.32;24.15;98216.75;4990864;28;20485;-75
2023/09/28 11:09:49;;;;;;;4.00;3.70;;;;;;;32.32;25.17;98225.34;4990371;28;20468;-75
2023/09/28 11:12:16;;;;;;;4.10;3.60;;;;;;;32.21;25.88;98215.66;4990659;28;20462;-75
2023/09/28 11:14:43;;;;;;;5.03;3.90;;;;;;;32.46;25.58;98188.66;4989950;28;20851;-75
2023/09/28 11:17:10;;;;;;;3.83;3.40;;;;;;;32.40;24.72;98218.88;4990508;28;20513;-74
2023/09/28 11:19:37;;;;;;;4.80;4.40;;;;;;;31.69;25.42;98221.56;4991266;28;20458;-75
2023/09/28 11:22:05;;;;;;;3.93;3.53;;;;;;;31.49;26.44;98223.09;4991029;28;20465;-74
2023/09/28 11:24:32;;;;;;;4.53;4.13;;;;;;;32.19;25.50;98223.56;4990738;28;20490;-75
2023/09/28 11:26:59;;;;;;;3.97;3.57;;;;;;;32.79;24.17;98216.78;4989326;28;20466;-75
2023/09/28 11:29:26;;;;;;;3.60;3.27;;;;;;;33.52;23.91;98225.44;4990666;28;20540;-75
2023/09/28 11:31:54;;;;;;;5.47;3.77;;;;;;;32.10;24.69;98217.22;4990579;28;20553;-75
2023/09/28 11:34:30;;;;;;;4.17;3.77;;;;;;;31.97;25.27;98217.13;4990411;28;20506;-75